Time;durP1;ratioP1;P1;durP2;ratioP2;P2;SDS_P1;SDS_P2;PMS_P1;PMS_P2;Temp;Humidity;BMP_temperature;BMP_pressure;BME280_temperature;BME280_humidity;BME280_pressure;Samples;Min_cycle;Max_cycle;Signal;HPM_P1;HPM_P2
2021/09/30 00:00:06;;;;;;;7.70;3.10;;;;;;;12.00;80.07;102265.34;5110646;28;20051;-50
2021/09/30 00:02:34;;;;;;;9.25;3.42;;;;;;;12.00;79.82;102270.81;5111531;28;20403;-53
2021/09/30 00:05:03;;;;;;;9.13;3.28;;;;;;;11.97;80.42;102274.03;5103672;28;20067;-52
2021/09/30 00:07:30;;;;;;;14.05;3.25;;;;;;;11.95;80.03;102277.00;5109638;28;20055;-53
2021/09/30 00:09:58;;;;;;;6.53;2.53;;;;;;;11.99;80.09;102274.63;5110918;28;20494;-54
2021/09/30 00:12:29;;;;;;;6.40;2.70;;;;;;;11.97;79.34;102279.50;5110091;28;20044;-53
2021/09/30 00:15:01;;;;;;;7.35;2.70;;;;;;;11.92;78.77;102280.22;5109728;28;20043;-54
2021/09/30 00:47:48;;;;;;;9.48;3.10;;;;;;;11.78;80.40;102317.00;5066983;28;20040;-52
2021/09/30 02:59:54;;;;;;;8.43;2.67;;;;;;;11.33;78.71;102337.56;5034827;28;20046;-51
2021/09/30 03:02:27;;;;;;;10.52;2.90;;;;;;;11.34;77.35;102343.84;5036623;28;20052;-53
2021/09/30 03:04:55;;;;;;;6.72;2.63;;;;;;;11.37;78.13;102337.91;5035775;28;20068;-56
2021/09/30 03:07:23;;;;;;;7.88;2.65;;;;;;;11.35;77.72;102343.59;5041343;28;20053;-54
2021/09/30 03:09:52;;;;;;;8.02;3.05;;;;;;;11.32;77.81;102340.53;5039990;28;20052;-50
2021/09/30 03:12:28;;;;;;;13.38;3.40;;;;;;;11.25;77.69;102344.19;5022474;28;20079;-52
2021/09/30 03:15:04;;;;;;;10.35;2.90;;;;;;;11.26;77.56;102348.59;5051266;28;20485;-53
2021/09/30 03:17:43;;;;;;;;;;;;;;;11.29;80.77;102339.91;5024187;28;20040;-52
2021/09/30 03:23:09;;;;;;;8.13;2.75;;;;;;;11.30;79.02;102357.97;5054796;28;20044;-54
2021/09/30 03:25:38;;;;;;;8.80;2.33;;;;;;;11.23;77.63;102359.97;5068731;28;20079;-53
2021/09/30 03:28:07;;;;;;;10.38;3.08;;;;;;;11.19;76.54;102363.41;5068723;28;20056;-54
2021/09/30 03:30:35;;;;;;;9.07;3.00;;;;;;;11.23;78.46;102364.56;5035359;28;20067;-56
2021/09/30 03:33:07;;;;;;;9.18;2.67;;;;;;;11.27;78.61;102361.16;5039042;28;20048;-54
2021/09/30 03:35:38;;;;;;;8.23;2.83;;;;;;;11.21;77.51;102355.81;5091032;28;20040;-54
2021/09/30 03:38:08;;;;;;;6.60;2.40;;;;;;;11.21;77.63;102366.75;5110568;28;20116;-53
2021/09/30 03:40:37;;;;;;;8.98;2.55;;;;;;;11.18;76.91;102362.56;5096168;28;20123;-53
2021/09/30 03:43:06;;;;;;;11.00;2.85;;;;;;;11.15;76.48;102365.75;5108627;28;20071;-52
2021/09/30 03:45:37;;;;;;;8.93;2.60;;;;;;;11.17;77.76;102365.53;5110267;28;20043;-52
2021/09/30 03:48:15;;;;;;;7.10;2.28;;;;;;;11.20;76.78;102362.34;5108006;28;20043;-52
2021/09/30 03:50:57;;;;;;;9.52;2.78;;;;;;;11.19;77.21;102374.31;5106212;28;20426;-52
2021/09/30 03:53:42;;;;;;;9.95;2.67;;;;;;;11.24;76.91;102377.19;5113145;28;20051;-53
2021/09/30 03:56:40;;;;;;;11.18;2.63;;;;;;;11.21;76.89;102383.09;5114255;28;20598;-54
2021/09/30 04:01:52;;;;;;;9.60;3.13;;;;;;;11.09;75.86;102377.63;5101544;28;20558;-52
2021/09/30 04:04:27;;;;;;;9.50;2.55;;;;;;;11.17;77.90;102382.72;5113688;28;20100;-54
2021/09/30 04:06:56;;;;;;;8.63;2.95;;;;;;;11.12;76.42;102389.97;5114524;28;20044;-54
2021/09/30 04:09:28;;;;;;;9.48;3.25;;;;;;;11.05;76.45;102388.16;5112473;28;20083;-53
2021/09/30 04:11:57;;;;;;;6.78;2.50;;;;;;;11.03;76.88;102393.00;5110511;28;20474;-53
2021/09/30 04:14:29;;;;;;;7.78;2.53;;;;;;;11.05;77.03;102400.97;5089480;28;20445;-53
2021/09/30 04:16:58;;;;;;;8.35;2.50;;;;;;;11.05;76.74;102396.34;5113752;28;20109;-54
2021/09/30 04:19:27;;;;;;;8.07;2.53;;;;;;;11.04;76.13;102394.69;5114210;28;20112;-55
2021/09/30 04:21:58;;;;;;;6.60;2.50;;;;;;;11.03;77.41;102406.63;5111245;28;20047;-54
2021/09/30 04:24:26;;;;;;;9.82;2.88;;;;;;;11.02;77.24;102410.44;5115192;28;20063;-53
2021/09/30 04:26:57;;;;;;;6.50;2.85;;;;;;;10.97;75.96;102404.03;5114559;28;20044;-53
2021/09/30 04:29:27;;;;;;;10.93;3.03;;;;;;;11.01;77.39;102410.66;5113592;28;20036;-54
2021/09/30 04:31:55;;;;;;;6.18;2.38;;;;;;;11.02;77.41;102410.44;5101887;28;20044;-54
2021/09/30 04:34:23;;;;;;;9.75;2.97;;;;;;;11.02;77.09;102413.16;5104332;28;20036;-50
2021/09/30 04:36:52;;;;;;;6.43;2.40;;;;;;;10.91;76.08;102413.94;5110216;28;20044;-53
2021/09/30 04:39:21;;;;;;;5.15;2.33;;;;;;;10.87;77.29;102415.47;5113713;28;20553;-54
2021/09/30 04:41:50;;;;;;;9.13;2.85;;;;;;;10.86;77.20;102422.00;5113240;28;20582;-53
2021/09/30 04:44:20;;;;;;;8.45;2.80;;;;;;;10.90;77.40;102423.22;5109769;28;20041;-52
2021/09/30 04:46:51;;;;;;;9.38;3.10;;;;;;;10.81;76.07;102421.84;5113670;28;20062;-53
2021/09/30 04:49:40;;;;;;;8.50;2.90;;;;;;;10.75;76.41;102420.03;5113297;28;20409;-53
2021/09/30 04:52:08;;;;;;;8.27;2.70;;;;;;;10.84;77.13;102421.38;5114639;28;20059;-55
2021/09/30 04:54:37;;;;;;;8.27;2.42;;;;;;;10.86;77.71;102422.00;5106956;28;20032;-58
2021/09/30 04:57:06;;;;;;;6.75;2.55;;;;;;;10.78;76.52;102425.06;5107536;28;20043;-54
2021/09/30 04:59:38;;;;;;;9.32;2.90;;;;;;;10.74;76.29;102418.38;5112993;28;20551;-52
2021/09/30 05:02:26;;;;;;;8.30;2.60;;;;;;;10.85;77.21;102423.06;5112428;28;20043;-53
2021/09/30 05:04:54;;;;;;;5.35;2.33;;;;;;;10.81;76.93;102428.13;5109423;28;20039;-53
2021/09/30 05:07:22;;;;;;;9.63;3.20;;;;;;;10.79;76.36;102426.69;5113242;28;20043;-55
2021/09/30 05:09:52;;;;;;;9.18;3.03;;;;;;;10.78;76.89;102430.50;5113799;28;20051;-56
2021/09/30 05:12:21;;;;;;;8.27;2.50;;;;;;;10.75;77.10;102430.94;5098480;28;20104;-54
2021/09/30 05:14:49;;;;;;;10.68;3.10;;;;;;;10.81;79.12;102439.03;5092247;28;20102;-54
2021/09/30 05:17:20;;;;;;;6.35;2.22;;;;;;;10.79;77.70;102432.16;5099472;28;20488;-54
2021/09/30 05:19:54;;;;;;;11.52;2.88;;;;;;;10.81;77.45;102438.22;5112821;28;20051;-52
2021/09/30 05:22:22;;;;;;;7.88;2.50;;;;;;;10.75;76.89;102437.25;5112840;28;20036;-57
2021/09/30 05:24:49;;;;;;;7.38;2.40;;;;;;;10.75;77.68;102433.66;5112373;28;20040;-54
2021/09/30 05:27:17;;;;;;;7.43;2.40;;;;;;;10.76;78.03;102435.34;5108573;28;20063;-54
2021/09/30 05:29:44;;;;;;;7.30;2.58;;;;;;;10.74;77.46;102440.19;5112809;28;20043;-54
2021/09/30 05:32:15;;;;;;;7.30;2.65;;;;;;;10.71;77.80;102441.50;5112391;28;20042;-54
2021/09/30 05:34:55;;;;;;;11.02;3.22;;;;;;;10.71;77.48;102443.38;5111995;28;20039;-55
2021/09/30 05:37:28;;;;;;;4.90;2.53;;;;;;;10.68;77.70;102443.81;5109975;28;20071;-54
2021/09/30 05:39:57;;;;;;;6.60;2.22;;;;;;;10.70;77.54;102436.25;5111851;28;20135;-51
2021/09/30 05:42:26;;;;;;;8.50;2.67;;;;;;;10.69;77.84;102440.06;5107807;28;20043;-56
2021/09/30 05:44:57;;;;;;;4.78;2.08;;;;;;;10.70;78.53;102437.06;5112402;28;20047;-54
2021/09/30 05:47:25;;;;;;;6.93;2.50;;;;;;;10.71;77.01;102440.66;5110653;28;20498;-57
2021/09/30 05:49:53;;;;;;;6.15;2.25;;;;;;;10.70;78.10;102428.91;5113667;28;20043;-53
2021/09/30 05:52:39;;;;;;;12.25;2.88;;;;;;;10.66;77.71;102425.81;5113368;28;20044;-54
2021/09/30 05:55:18;;;;;;;6.15;2.03;;;;;;;10.76;79.44;102429.91;5106959;28;20110;-57
2021/09/30 05:57:46;;;;;;;8.02;2.88;;;;;;;10.72;78.65;102424.06;5102544;28;20044;-54
2021/09/30 06:00:29;;;;;;;7.18;2.30;;;;;;;10.73;79.13;102424.91;5108345;28;20054;-53
2021/09/30 06:11:53;;;;;;;6.53;2.45;;;;;;;10.75;79.26;102428.22;5012677;28;20046;-52
2021/09/30 06:14:26;;;;;;;5.68;2.38;;;;;;;10.70;78.91;102430.81;4661533;28;10000809;-54
2021/09/30 06:16:55;;;;;;;8.10;2.67;;;;;;;10.70;77.92;102436.25;5011578;28;20610;-54
2021/09/30 06:19:35;;;;;;;8.88;2.70;;;;;;;10.71;78.27;102437.94;4998420;28;20128;-53
2021/09/30 06:22:07;;;;;;;7.80;2.63;;;;;;;10.67;77.43;102443.00;5005156;28;20049;-52
2021/09/30 06:24:38;;;;;;;6.97;2.30;;;;;;;10.71;79.54;102427.84;4980639;28;20046;-53
2021/09/30 06:27:26;;;;;;;5.57;2.28;;;;;;;10.76;78.02;102435.34;5011531;28;20056;-54
2021/09/30 06:29:56;;;;;;;8.13;2.67;;;;;;;10.88;80.22;102436.22;5011153;28;20049;-53
2021/09/30 06:32:24;;;;;;;9.90;2.90;;;;;;;10.86;77.76;102441.09;5027332;28;20045;-53
2021/09/30 06:35:17;;;;;;;8.98;2.50;;;;;;;10.87;79.99;102440.00;5014424;28;20494;-54
2021/09/30 06:37:50;;;;;;;6.28;2.17;;;;;;;11.03;82.11;102441.28;4993195;28;20495;-53
2021/09/30 06:40:18;;;;;;;6.20;2.40;;;;;;;10.95;79.06;102438.88;5077944;28;20075;-56
2021/09/30 06:42:48;;;;;;;7.20;2.60;;;;;;;11.14;81.36;102453.31;5096558;28;20514;-55
2021/09/30 06:45:52;;;;;;;8.57;2.38;;;;;;;11.12;80.04;102449.97;5041663;28;20119;-55
2021/09/30 06:48:39;;;;;;;7.68;2.65;;;;;;;11.22;79.39;102447.50;5036590;28;20626;-55
2021/09/30 06:51:39;;;;;;;6.15;2.33;;;;;;;11.24;79.78;102459.03;5031235;28;20088;-53
2021/09/30 06:54:09;;;;;;;6.68;2.50;;;;;;;11.35;79.52;102457.38;5029712;28;20045;-52
2021/09/30 06:56:56;;;;;;;9.55;2.92;;;;;;;11.20;78.45;102457.81;5040605;28;20041;-55
2021/09/30 06:59:45;;;;;;;10.63;2.65;;;;;;;11.09;79.08;102462.19;5032796;28;20109;-54
2021/09/30 07:02:31;;;;;;;9.55;3.10;;;;;;;10.96;78.18;102445.97;5046808;28;20523;-53
2021/09/30 07:05:18;;;;;;;9.80;2.88;;;;;;;11.00;79.20;102448.03;5046166;28;20256;-54
2021/09/30 07:08:07;;;;;;;8.15;2.60;;;;;;;11.21;81.25;102454.88;5031414;28;20095;-53
2021/09/30 07:10:34;;;;;;;7.20;2.55;;;;;;;11.31;79.36;102459.75;5039362;28;20076;-54
2021/09/30 07:13:02;;;;;;;8.10;2.30;;;;;;;11.31;79.84;102459.75;5029429;28;20054;-57
2021/09/30 07:15:30;;;;;;;10.95;3.60;;;;;;;11.33;80.47;102463.09;5029415;28;20072;-53
2021/09/30 07:17:58;;;;;;;13.38;4.30;;;;;;;11.23;78.55;102468.25;5035782;28;20049;-57
2021/09/30 07:20:25;;;;;;;12.90;3.80;;;;;;;11.16;78.31;102459.34;5078624;28;20056;-53
2021/09/30 07:22:53;;;;;;;15.90;4.82;;;;;;;11.32;79.61;102461.41;5111849;28;20043;-54
2021/09/30 07:25:24;;;;;;;18.05;5.63;;;;;;;11.25;80.46;102456.03;5111427;28;20037;-55
2021/09/30 07:27:52;;;;;;;22.25;5.88;;;;;;;11.32;80.02;102450.50;5108383;28;20457;-56
2021/09/30 07:30:20;;;;;;;13.25;4.53;;;;;;;11.33;78.86;102460.38;5110133;28;20040;-53
2021/09/30 07:32:47;;;;;;;13.40;4.30;;;;;;;11.29;81.83;102461.88;5111856;28;20031;-56
2021/09/30 07:35:15;;;;;;;9.70;3.50;;;;;;;11.22;78.77;102461.16;5104097;28;20036;-53
2021/09/30 07:37:44;;;;;;;8.77;3.17;;;;;;;11.09;76.58;102463.00;5110511;28;20035;-53
2021/09/30 07:40:15;;;;;;;9.15;2.92;;;;;;;11.00;76.48;102458.94;5110075;28;20046;-56
2021/09/30 07:42:42;;;;;;;15.43;3.65;;;;;;;11.01;77.81;102459.75;5111562;28;20050;-55
2021/09/30 07:45:10;;;;;;;11.05;3.33;;;;;;;11.03;77.45;102458.47;5111771;28;20050;-56
2021/09/30 07:47:38;;;;;;;12.27;3.85;;;;;;;11.00;77.41;102458.94;5111591;28;20066;-55
2021/09/30 07:50:05;;;;;;;13.77;3.60;;;;;;;11.16;77.76;102467.53;5109815;28;20529;-52
2021/09/30 07:52:33;;;;;;;10.38;3.63;;;;;;;11.14;77.49;102461.50;5109857;28;20054;-55
2021/09/30 07:55:02;;;;;;;14.38;4.57;;;;;;;11.30;80.22;102469.84;5111880;28;20043;-53
2021/09/30 07:57:30;;;;;;;11.88;3.85;;;;;;;11.34;78.46;102467.47;5111618;28;20040;-53
2021/09/30 07:59:57;;;;;;;10.50;3.85;;;;;;;11.31;79.13;102476.13;5110391;28;20040;-53
2021/09/30 08:02:28;;;;;;;10.10;3.40;;;;;;;11.27;77.33;102480.38;5104492;28;20036;-53
2021/09/30 08:04:56;;;;;;;13.52;3.65;;;;;;;11.18;76.61;102471.69;5111067;28;20114;-53
2021/09/30 08:07:23;;;;;;;16.60;4.47;;;;;;;11.39;80.04;102467.59;5111152;28;20135;-57
2021/09/30 08:09:51;;;;;;;13.50;4.05;;;;;;;11.45;80.72;102482.25;5111477;28;20043;-53
2021/09/30 08:12:18;;;;;;;14.23;3.90;;;;;;;11.63;80.71;102478.59;5109572;28;20110;-53
2021/09/30 08:14:46;;;;;;;10.82;3.40;;;;;;;11.71;78.70;102481.81;5110165;28;20055;-52
2021/09/30 08:17:13;;;;;;;12.43;3.88;;;;;;;11.67;80.79;102482.53;5111451;28;20401;-54
2021/09/30 08:19:41;;;;;;;13.00;4.10;;;;;;;11.61;77.40;102486.19;5111453;28;20043;-52
2021/09/30 08:22:09;;;;;;;10.93;3.10;;;;;;;11.52;77.19;102489.25;5109329;28;20071;-53
2021/09/30 08:24:36;;;;;;;11.27;3.53;;;;;;;11.63;79.85;102489.50;5111060;28;20101;-53
2021/09/30 08:27:04;;;;;;;14.57;4.38;;;;;;;11.72;80.02;102490.84;5111147;28;20043;-56
2021/09/30 08:29:32;;;;;;;10.25;3.67;;;;;;;11.71;78.56;102489.16;5111301;28;20081;-52
2021/09/30 08:32:01;;;;;;;10.40;3.97;;;;;;;11.61;77.64;102486.19;5108471;28;20040;-51
2021/09/30 08:34:29;;;;;;;13.43;3.63;;;;;;;11.83;76.92;102484.53;5111021;28;20046;-52
2021/09/30 08:36:57;;;;;;;12.60;3.13;;;;;;;11.99;76.82;102487.69;5111880;28;20490;-54
2021/09/30 08:39:25;;;;;;;10.18;2.85;;;;;;;11.87;77.79;102484.94;5115152;28;20119;-51
2021/09/30 08:41:55;;;;;;;13.10;3.10;;;;;;;11.86;77.50;102495.03;5114686;28;20075;-51
2021/09/30 08:44:23;;;;;;;11.40;3.20;;;;;;;12.00;76.43;102505.75;5112934;28;20040;-52
2021/09/30 08:46:50;;;;;;;9.75;3.30;;;;;;;12.06;78.32;102497.44;5115368;28;20494;-52
2021/09/30 08:49:18;;;;;;;12.27;3.50;;;;;;;12.17;78.87;102487.59;5114075;28;20118;-53
2021/09/30 08:51:46;;;;;;;13.40;3.47;;;;;;;12.17;76.91;102493.06;5114903;28;20071;-53
2021/09/30 08:54:14;;;;;;;10.05;3.35;;;;;;;12.21;75.98;102496.13;5112540;28;20040;-53
2021/09/30 08:56:41;;;;;;;9.80;3.45;;;;;;;12.11;75.98;102497.56;5114521;28;20039;-53
2021/09/30 08:59:18;;;;;;;9.38;3.13;;;;;;;12.24;79.25;102496.50;5114438;28;20044;-52
2021/09/30 09:02:02;;;;;;;14.27;2.90;;;;;;;12.31;75.84;102494.47;5101220;28;20047;-52
2021/09/30 09:04:57;;;;;;;10.23;3.40;;;;;;;12.30;77.60;102494.72;5112176;28;20047;-53
2021/09/30 09:07:27;;;;;;;8.27;2.70;;;;;;;12.38;78.33;102496.25;5114595;28;20130;-53
2021/09/30 09:10:01;;;;;;;12.93;3.30;;;;;;;12.63;76.44;102490.50;5113904;28;20051;-51
2021/09/30 09:12:31;;;;;;;9.32;3.72;;;;;;;12.74;74.59;102484.19;5113156;28;20046;-53
2021/09/30 09:15:00;;;;;;;9.00;3.05;;;;;;;12.65;74.33;102497.41;5112468;28;20375;-52
2021/09/30 09:17:28;;;;;;;7.20;2.83;;;;;;;12.42;74.32;102484.59;5114251;28;20035;-52
2021/09/30 09:19:58;;;;;;;10.15;3.60;;;;;;;12.33;74.60;102494.22;5112480;28;20050;-50
2021/09/30 09:22:32;;;;;;;10.70;3.40;;;;;;;12.43;73.43;102490.88;5113940;28;20059;-52
2021/09/30 09:25:10;;;;;;;7.47;2.67;;;;;;;12.58;75.51;102496.72;5113683;28;20038;-52
2021/09/30 09:27:44;;;;;;;9.27;2.95;;;;;;;12.42;76.75;102492.78;5110513;28;20122;-52
2021/09/30 09:30:25;;;;;;;9.10;2.83;;;;;;;12.46;73.62;102504.06;5113898;28;20118;-54
2021/09/30 09:33:11;;;;;;;12.02;2.78;;;;;;;12.39;74.78;102498.75;5100097;28;20043;-53
2021/09/30 09:35:45;;;;;;;10.13;3.22;;;;;;;12.62;75.03;102497.88;5112205;28;20387;-55
2021/09/30 09:38:13;;;;;;;9.80;3.03;;;;;;;12.85;72.38;102501.66;5113922;28;20047;-56
2021/09/30 09:40:40;;;;;;;11.57;3.20;;;;;;;12.65;71.77;102489.22;5113778;28;20503;-53
2021/09/30 09:43:34;;;;;;;10.60;3.28;;;;;;;12.54;73.38;102484.59;5113405;28;20079;-49
2021/09/30 09:46:04;;;;;;;10.27;3.03;;;;;;;12.41;72.56;102490.28;5109041;28;20105;-54
2021/09/30 09:48:33;;;;;;;13.82;3.35;;;;;;;12.63;73.18;102493.22;5113042;28;20411;-56
2021/09/30 09:51:07;;;;;;;13.20;3.00;;;;;;;12.65;74.75;102481.00;5113764;28;20073;-53
2021/09/30 09:53:35;;;;;;;9.82;3.10;;;;;;;12.88;74.26;102490.22;5113670;28;20046;-55
2021/09/30 09:56:20;;;;;;;8.98;3.15;;;;;;;13.01;73.00;102487.19;5111669;28;20039;-55
2021/09/30 09:58:56;;;;;;;13.40;3.50;;;;;;;12.98;73.29;102484.94;5113660;27;20482;-52
2021/09/30 10:01:43;;;;;;;7.55;2.58;;;;;;;13.08;74.02;102479.66;5112986;28;20561;-52
2021/09/30 10:04:13;;;;;;;12.80;3.35;;;;;;;13.13;68.59;102482.50;5112972;28;20119;-55
2021/09/30 10:06:41;;;;;;;7.68;3.00;;;;;;;12.91;73.56;102481.50;5111563;28;20097;-56
2021/09/30 10:09:11;;;;;;;7.75;3.08;;;;;;;12.96;71.92;102476.13;5113009;28;20052;-56
2021/09/30 10:11:38;;;;;;;5.45;2.10;;;;;;;12.78;69.30;102480.72;5113003;28;20062;-50
2021/09/30 10:14:08;;;;;;;7.57;2.80;;;;;;;12.86;71.47;102484.16;5112794;28;20108;-55
2021/09/30 10:16:37;;;;;;;8.10;2.90;;;;;;;12.95;70.05;102477.22;5110955;28;20230;-56
2021/09/30 10:19:07;;;;;;;7.25;2.60;;;;;;;12.85;71.49;102479.75;5112654;28;20560;-54
2021/09/30 10:21:37;;;;;;;6.07;1.92;;;;;;;12.90;71.83;102471.66;5112996;28;20047;-55
2021/09/30 10:24:08;;;;;;;9.70;2.58;;;;;;;12.92;73.67;102462.13;5111656;28;20417;-55
2021/09/30 10:26:46;;;;;;;9.55;2.65;;;;;;;13.20;71.79;102457.72;5110077;28;20078;-56
2021/09/30 10:29:46;;;;;;;8.82;2.30;;;;;;;13.16;68.62;102457.38;5112426;28;20040;-56
2021/09/30 10:32:18;;;;;;;10.27;3.20;;;;;;;13.18;70.53;102455.25;5102164;28;20039;-56
2021/09/30 10:34:48;;;;;;;8.55;2.63;;;;;;;12.96;66.85;102454.25;5112349;28;20050;-54
2021/09/30 10:37:25;;;;;;;9.45;2.88;;;;;;;12.93;70.11;102457.47;5110946;28;20055;-54
2021/09/30 10:40:23;;;;;;;7.90;2.47;;;;;;;13.10;74.48;102449.31;5113031;28;20045;-55
2021/09/30 10:42:57;;;;;;;6.82;2.55;;;;;;;13.19;73.98;102451.41;5108644;28;20040;-52
2021/09/30 10:45:39;;;;;;;6.63;2.47;;;;;;;13.17;67.73;102460.94;5112034;28;20070;-56
2021/09/30 10:48:23;;;;;;;9.15;3.30;;;;;;;12.97;65.82;102456.75;5099657;28;20104;-53
2021/09/30 10:51:07;;;;;;;7.78;2.60;;;;;;;12.98;68.77;102452.09;5099004;28;20036;-55
2021/09/30 10:53:47;;;;;;;6.65;1.73;;;;;;;13.26;73.69;102448.53;5111104;28;20512;-57
2021/09/30 10:56:30;;;;;;;7.18;2.30;;;;;;;13.24;71.18;102447.13;5103546;28;20118;-56
2021/09/30 10:59:07;;;;;;;6.25;2.10;;;;;;;13.46;72.31;102445.34;5098654;28;20452;-52
2021/09/30 11:01:47;;;;;;;6.40;2.45;;;;;;;13.56;67.84;102447.44;5111283;28;20050;-54
2021/09/30 11:04:15;;;;;;;7.95;2.65;;;;;;;13.37;66.74;102444.94;5112304;28;20126;-56
2021/09/30 11:07:12;;;;;;;6.10;2.15;;;;;;;13.54;64.21;102441.38;5109327;28;20042;-56
2021/09/30 11:10:12;;;;;;;9.90;2.40;;;;;;;13.46;66.78;102450.81;5112086;28;20134;-56
2021/09/30 11:12:40;;;;;;;6.82;2.20;;;;;;;13.60;70.05;102441.22;5100643;28;20040;-55
2021/09/30 11:15:08;;;;;;;8.75;2.50;;;;;;;13.47;63.35;102444.28;5110364;28;20046;-56
2021/09/30 11:17:40;;;;;;;6.68;2.30;;;;;;;13.35;65.65;102446.25;5106958;28;20065;-55
2021/09/30 11:20:35;;;;;;;7.47;2.78;;;;;;;13.33;65.35;102440.19;5112093;28;20452;-56
2021/09/30 11:23:04;;;;;;;9.38;2.72;;;;;;;13.68;66.84;102450.09;5110498;28;20042;-56
2021/09/30 11:26:09;;;;;;;5.45;2.20;;;;;;;13.78;69.81;102444.75;5109706;28;20043;-56
2021/09/30 11:28:38;;;;;;;7.60;2.38;;;;;;;13.59;62.07;102442.28;5110948;28;20484;-56
2021/09/30 11:31:31;;;;;;;6.88;2.05;;;;;;;13.56;69.56;102448.25;5110234;28;20409;-55
2021/09/30 11:34:00;;;;;;;8.85;2.53;;;;;;;13.40;63.91;102444.44;5111560;28;20051;-58
2021/09/30 11:36:36;;;;;;;8.95;2.70;;;;;;;13.32;65.36;102444.00;5110331;28;20031;-56
2021/09/30 11:39:04;;;;;;;5.82;2.00;;;;;;;13.48;71.27;102439.63;5111917;28;20047;-56
2021/09/30 11:41:34;;;;;;;6.47;2.40;;;;;;;13.72;67.24;102437.56;5111835;28;20036;-57
2021/09/30 11:44:02;;;;;;;8.38;2.33;;;;;;;14.03;68.40;102430.66;5111468;28;20395;-56
2021/09/30 11:46:32;;;;;;;10.52;2.92;;;;;;;14.01;65.23;102433.63;5110249;28;20047;-57
2021/09/30 11:49:00;;;;;;;6.95;2.03;;;;;;;14.02;68.11;102429.81;5110801;28;20400;-56
2021/09/30 11:51:34;;;;;;;10.85;2.35;;;;;;;13.98;64.30;102425.09;5097810;28;20035;-56
2021/09/30 11:54:02;;;;;;;9.55;3.10;;;;;;;13.66;61.99;102422.13;5111741;28;20401;-57
2021/09/30 11:56:51;;;;;;;7.53;2.17;;;;;;;13.55;65.75;102408.25;5109740;28;20042;-54
2021/09/30 11:59:24;;;;;;;6.97;2.45;;;;;;;13.56;63.97;102407.16;5091225;28;20502;-56
2021/09/30 12:01:54;;;;;;;5.45;2.53;;;;;;;13.46;64.74;102412.47;5110214;28;20039;-56
2021/09/30 12:04:36;;;;;;;9.43;2.45;;;;;;;13.53;66.07;102404.94;5111716;28;20089;-53
2021/09/30 12:07:04;;;;;;;7.20;2.17;;;;;;;13.61;66.57;102401.81;5110208;28;20494;-56
2021/09/30 12:09:33;;;;;;;5.82;2.33;;;;;;;13.59;68.99;102395.75;5109786;28;20055;-56
2021/09/30 12:12:04;;;;;;;8.95;2.50;;;;;;;13.65;67.40;102388.41;5113642;28;20031;-54
2021/09/30 12:14:51;;;;;;;6.72;2.53;;;;;;;13.68;68.18;102395.31;5115446;28;20067;-58
2021/09/30 12:17:20;;;;;;;11.30;2.97;;;;;;;13.73;65.72;102398.13;5115146;28;20042;-57
2021/09/30 12:19:53;;;;;;;7.78;2.13;;;;;;;13.83;65.08;102390.91;5113771;28;20043;-56
2021/09/30 12:22:26;;;;;;;7.65;2.22;;;;;;;13.80;66.00;102393.28;5115229;28;20049;-57
2021/09/30 12:25:19;;;;;;;7.78;2.22;;;;;;;13.87;66.53;102391.22;5114948;28;20054;-56
2021/09/30 12:27:48;;;;;;;7.45;2.38;;;;;;;13.75;66.05;102380.34;5114899;28;20044;-57
2021/09/30 12:30:22;;;;;;;6.53;2.35;;;;;;;13.81;67.49;102378.53;5099963;28;20510;-53
2021/09/30 12:32:52;;;;;;;5.70;2.13;;;;;;;13.90;68.50;102371.53;5101772;28;20115;-52
2021/09/30 12:35:26;;;;;;;5.20;1.45;;;;;;;14.06;69.38;102369.84;5115422;28;20051;-56
2021/09/30 12:37:59;;;;;;;9.45;2.50;;;;;;;14.12;63.47;102362.50;5115217;28;20062;-56
2021/09/30 12:40:43;;;;;;;9.00;2.70;;;;;;;14.22;64.30;102365.41;5112043;28;20089;-55
2021/09/30 12:43:16;;;;;;;9.88;2.90;;;;;;;13.94;63.32;102356.25;5102342;28;20047;-56
2021/09/30 12:45:57;;;;;;;6.70;2.30;;;;;;;13.96;68.47;102362.31;5114740;28;20040;-57
2021/09/30 12:48:29;;;;;;;8.52;2.67;;;;;;;14.36;65.88;102363.06;5114899;28;20053;-57
2021/09/30 12:50:59;;;;;;;6.10;2.42;;;;;;;14.18;63.27;102358.75;5112812;28;20050;-56
2021/09/30 12:53:27;;;;;;;5.90;2.10;;;;;;;14.17;65.02;102357.09;5114825;28;20048;-56
2021/09/30 12:56:10;;;;;;;7.53;1.83;;;;;;;14.39;66.22;102354.34;5113966;28;20051;-57
2021/09/30 12:58:45;;;;;;;9.82;2.70;;;;;;;14.27;64.79;102359.97;5114464;28;20036;-56
2021/09/30 13:01:35;;;;;;;6.85;2.55;;;;;;;14.24;63.27;102358.56;5112479;28;20047;-57
2021/09/30 13:04:12;;;;;;;9.02;2.70;;;;;;;14.15;63.49;102356.53;5114476;28;20043;-53
2021/09/30 13:06:55;;;;;;;10.63;3.05;;;;;;;14.06;63.38;102348.72;5114228;27;20036;-52
2021/09/30 13:09:24;;;;;;;8.52;2.45;;;;;;;14.14;65.39;102343.88;5114262;28;20047;-55
2021/09/30 13:12:03;;;;;;;4.95;2.30;;;;;;;14.02;68.49;102349.47;5112184;28;20039;-57
2021/09/30 13:14:53;;;;;;;7.72;2.53;;;;;;;14.04;67.16;102350.88;5114329;28;20036;-56
2021/09/30 13:17:26;;;;;;;7.65;2.95;;;;;;;14.22;66.09;102352.50;5111858;28;20118;-53
2021/09/30 13:20:06;;;;;;;6.25;2.50;;;;;;;14.25;65.42;102348.44;5109677;28;20558;-55
2021/09/30 13:22:43;;;;;;;9.55;2.85;;;;;;;14.13;64.14;102347.72;5104645;28;20071;-55
2021/09/30 13:25:16;;;;;;;7.68;2.63;;;;;;;14.01;66.11;102340.44;5112088;28;20058;-56
2021/09/30 13:27:45;;;;;;;11.65;3.25;;;;;;;14.04;66.15;102339.94;4398566;28;10000021;-56
2021/09/30 13:30:16;;;;;;;7.38;2.58;;;;;;;14.07;65.49;102331.22;5108831;28;20038;-54
2021/09/30 13:32:45;;;;;;;13.93;2.15;;;;;;;14.27;68.16;102338.03;5098075;28;20388;-57
2021/09/30 13:35:13;;;;;;;13.18;3.15;;;;;;;14.52;63.63;102322.94;5111708;28;20137;-55
2021/09/30 13:37:41;;;;;;;12.13;3.58;;;;;;;14.41;63.30;102322.03;5109754;28;20043;-57
2021/09/30 13:40:10;;;;;;;5.97;2.25;;;;;;;14.40;68.04;102314.88;5110457;28;20476;-57
2021/09/30 13:42:39;;;;;;;8.43;2.70;;;;;;;14.40;64.59;102315.69;5111017;28;20455;-57
2021/09/30 13:45:10;;;;;;;5.97;1.90;;;;;;;14.38;68.17;102306.91;5111648;28;20040;-53
2021/09/30 13:47:38;;;;;;;10.98;3.25;;;;;;;14.28;65.52;102304.84;5109543;28;20039;-56
2021/09/30 13:50:09;;;;;;;10.82;3.17;;;;;;;14.14;65.56;102300.03;5110311;28;20672;-54
2021/09/30 13:52:37;;;;;;;8.18;2.67;;;;;;;14.01;64.99;102293.84;5109485;28;20405;-56
2021/09/30 13:55:06;;;;;;;6.65;2.33;;;;;;;14.12;68.09;102296.72;5110943;28;20043;-57
2021/09/30 13:57:34;;;;;;;8.30;2.75;;;;;;;14.11;66.88;102284.09;5109568;28;20044;-52
2021/09/30 14:00:05;;;;;;;7.50;2.03;;;;;;;14.14;68.99;102289.91;5110176;28;20126;-57
2021/09/30 14:02:46;;;;;;;5.82;2.42;;;;;;;14.18;68.73;102279.25;5105288;28;20052;-55
2021/09/30 14:05:17;;;;;;;7.35;2.15;;;;;;;14.12;68.95;102280.25;5111139;28;20383;-56
2021/09/30 14:07:46;;;;;;;7.35;2.70;;;;;;;14.15;68.06;102268.81;5096632;28;20044;-56
2021/09/30 14:10:16;;;;;;;4.10;2.00;;;;;;;14.31;69.39;102264.31;5109297;28;20060;-54
2021/09/30 14:12:45;;;;;;;9.02;2.55;;;;;;;14.32;65.84;102271.47;5102604;28;20066;-57
2021/09/30 14:15:14;;;;;;;7.28;2.40;;;;;;;14.33;68.75;102267.63;5109387;28;20043;-57
2021/09/30 14:17:42;;;;;;;5.82;2.53;;;;;;;14.41;67.99;102268.00;5099140;28;20048;-57
2021/09/30 14:20:10;;;;;;;4.72;2.08;;;;;;;14.47;68.51;102261.47;5109020;28;20039;-56
2021/09/30 14:22:39;;;;;;;6.40;2.47;;;;;;;14.56;66.91;102261.06;5110462;28;20096;-54
2021/09/30 14:25:08;;;;;;;5.55;2.50;;;;;;;14.58;67.99;102253.41;5111059;28;20616;-54
2021/09/30 14:27:36;;;;;;;5.57;2.22;;;;;;;14.55;66.07;102253.88;5104903;28;20040;-56
2021/09/30 14:30:05;;;;;;;6.30;2.25;;;;;;;14.60;65.89;102251.19;5098187;28;20048;-56
2021/09/30 14:32:51;;;;;;;6.25;2.25;;;;;;;14.56;67.96;102247.34;5102740;28;20048;-54
2021/09/30 14:35:19;;;;;;;6.80;2.40;;;;;;;14.45;65.67;102246.34;5089290;28;20110;-57
2021/09/30 14:38:06;;;;;;;6.88;2.55;;;;;;;14.46;67.20;102237.06;5098537;28;20047;-55
2021/09/30 14:40:54;;;;;;;8.25;2.55;;;;;;;14.35;65.76;102247.09;5110136;28;20048;-55
2021/09/30 14:43:24;;;;;;;7.70;2.33;;;;;;;14.22;67.35;102237.38;5109217;28;20035;-57
2021/09/30 14:45:52;;;;;;;6.25;2.65;;;;;;;14.30;66.12;102244.28;5107974;28;20550;-56